Terminal Aerodrome Forecast
Issued by NWS Cleveland, OH

Home | Current Version | Previous Version | Graphics & Text | Print | Product List | Glossary On
Versions: 1 2 3 4 5 6 7 8 9 10 11 12 13 14 15 16 17 18 19 20 21 22
000
FTUS41 KCLE 291200 AAA
TAFYNG
TAF AMD
KYNG 291234Z 2913/3012 VRB03KT 2SM BR SKC
     FM291330 25005KT P6SM SCT040
     FM292300 VRB03KT P6SM SKC
     FM301100 25005KT P6SM VCSH BKN040 OVC100=

USA.gov is the U.S. government's official web portal to all federal, state and local government web resources and services.